createdAt,value
2023-10-20T00:00:30.652Z,1.60
2023-10-20T00:02:59.114Z,1.20
2023-10-20T00:05:29.740Z,1.55
2023-10-20T00:07:59.565Z,1.30
2023-10-20T00:10:29.851Z,1.20
2023-10-20T00:13:00.752Z,1.30
2023-10-20T00:15:29.374Z,1.40
2023-10-20T00:17:57.822Z,1.30
2023-10-20T00:20:26.800Z,1.02
2023-10-20T00:22:55.274Z,1.52
2023-10-20T00:25:25.102Z,1.35
2023-10-20T00:27:53.508Z,1.52
2023-10-20T00:30:21.899Z,1.67
2023-10-20T00:32:50.388Z,1.48
2023-10-20T00:35:19.436Z,1.50
2023-10-20T00:37:47.840Z,1.85
2023-10-20T00:40:16.690Z,1.50
2023-10-20T00:42:46.422Z,1.15
2023-10-20T00:45:14.951Z,1.27
2023-10-20T00:47:46.131Z,1.40
2023-10-20T00:50:15.441Z,1.73
2023-10-20T00:52:46.618Z,1.58
2023-10-20T00:55:16.144Z,1.50
2023-10-20T00:57:47.458Z,1.52
2023-10-20T01:00:15.382Z,1.80
2023-10-20T01:02:44.020Z,1.30
2023-10-20T01:05:16.165Z,1.10
2023-10-20T01:07:45.157Z,1.20
2023-10-20T01:10:14.852Z,1.80
2023-10-20T01:12:43.388Z,1.70
2023-10-20T01:15:15.830Z,2.08
2023-10-20T01:17:45.109Z,1.60
2023-10-20T01:20:14.207Z,1.60
2023-10-20T01:22:43.076Z,1.80
2023-10-20T01:25:13.287Z,2.08
2023-10-20T01:27:41.639Z,2.40
2023-10-20T01:30:12.092Z,1.88
2023-10-20T01:32:42.182Z,2.05
2023-10-20T01:35:11.138Z,2.75
2023-10-20T01:37:39.622Z,2.47
2023-10-20T01:40:09.769Z,2.45
2023-10-20T01:42:39.540Z,2.67
2023-10-20T01:45:08.420Z,2.30
2023-10-20T01:47:37.099Z,3.05
2023-10-20T01:50:05.982Z,2.92
2023-10-20T01:52:34.436Z,2.97
2023-10-20T01:55:02.883Z,2.80
2023-10-20T01:57:31.284Z,3.35
2023-10-20T02:00:02.877Z,3.70
2023-10-20T02:02:31.483Z,3.22
2023-10-20T02:05:00.037Z,3.35
2023-10-20T02:07:28.662Z,3.10
2023-10-20T02:09:57.298Z,3.28
2023-10-20T02:12:25.693Z,3.63
2023-10-20T02:14:54.073Z,3.83
2023-10-20T02:17:23.922Z,2.60
2023-10-20T02:19:52.992Z,3.38
2023-10-20T02:22:21.404Z,3.60
2023-10-20T02:24:49.763Z,4.05
2023-10-20T02:27:18.150Z,3.22
2023-10-20T02:29:46.547Z,4.45
2023-10-20T02:32:15.068Z,3.72
2023-10-20T02:34:44.865Z,2.70
2023-10-20T02:37:14.275Z,3.83
2023-10-20T02:39:42.832Z,3.45
2023-10-20T02:42:11.183Z,4.00
2023-10-20T02:44:40.325Z,3.35
2023-10-20T02:47:09.392Z,3.45
2023-10-20T02:49:37.822Z,3.65
2023-10-20T02:52:08.292Z,3.50
2023-10-20T02:54:36.709Z,3.22
2023-10-20T02:57:07.503Z,4.13
2023-10-20T02:59:35.926Z,3.08
2023-10-20T03:02:04.435Z,3.70
2023-10-20T03:04:33.378Z,3.40
2023-10-20T03:07:02.128Z,3.83
2023-10-20T03:09:31.865Z,3.05
2023-10-20T03:12:00.664Z,3.60
2023-10-20T03:14:29.081Z,3.63
2023-10-20T03:16:57.512Z,3.35
2023-10-20T03:19:25.912Z,3.80
2023-10-20T03:21:54.421Z,3.70
2023-10-20T03:24:22.775Z,3.55
2023-10-20T03:26:52.636Z,2.85
2023-10-20T03:29:21.185Z,3.05
2023-10-20T03:31:49.768Z,3.33
2023-10-20T03:34:18.139Z,3.33
2023-10-20T03:36:46.699Z,3.40
2023-10-20T03:39:21.426Z,3.28
2023-10-20T03:41:50.423Z,3.38
2023-10-20T03:44:22.575Z,3.22
2023-10-20T03:46:51.394Z,3.20
2023-10-20T03:49:20.222Z,3.45
2023-10-20T03:51:50.933Z,2.78
2023-10-20T03:54:20.537Z,3.40
2023-10-20T03:56:48.931Z,2.67
2023-10-20T03:59:17.741Z,2.80
2023-10-20T04:01:47.585Z,2.85
2023-10-20T04:04:18.144Z,2.72
2023-10-20T04:06:46.742Z,3.15
2023-10-20T04:09:15.130Z,3.05
2023-10-20T04:11:43.630Z,3.10
2023-10-20T04:14:12.438Z,2.88
2023-10-20T04:16:42.490Z,2.45
2023-10-20T04:19:15.265Z,2.67
2023-10-20T04:21:44.585Z,3.20
2023-10-20T04:24:13.170Z,3.50
2023-10-20T04:26:43.047Z,2.63
2023-10-20T04:29:25.057Z,2.90
2023-10-20T04:32:11.528Z,3.25
2023-10-20T04:35:04.566Z,2.53
2023-10-20T04:37:50.463Z,3.20
2023-10-20T04:43:21.227Z,3.30
2023-10-20T04:46:29.167Z,3.10
2023-10-20T04:52:21.404Z,3.13
2023-10-20T04:54:52.299Z,3.10
2023-10-20T04:57:38.681Z,3.22
2023-10-20T05:00:21.408Z,3.17
2023-10-20T05:03:00.113Z,3.47
2023-10-20T05:05:35.044Z,4.00
2023-10-20T05:08:18.008Z,3.97
2023-10-20T05:10:46.924Z,3.67
2023-10-20T05:13:15.379Z,3.53
2023-10-20T05:15:44.813Z,3.63
2023-10-20T05:18:15.276Z,3.40
2023-10-20T05:20:44.154Z,3.58
2023-10-20T05:23:15.618Z,4.38
2023-10-20T05:25:50.513Z,2.72
2023-10-20T05:28:19.213Z,3.42
2023-10-20T05:30:48.068Z,4.05
2023-10-20T05:33:17.170Z,3.17
2023-10-20T05:35:46.047Z,3.15
2023-10-20T05:38:15.846Z,4.40
2023-10-20T05:40:44.265Z,2.83
2023-10-20T05:43:13.285Z,3.88
2023-10-20T05:45:42.186Z,3.58
2023-10-20T05:48:12.022Z,3.63
2023-10-20T05:50:40.894Z,4.05
2023-10-20T05:53:09.445Z,3.40
2023-10-20T05:55:39.373Z,3.75
2023-10-20T05:58:08.329Z,3.97
2023-10-20T06:00:59.383Z,3.83
2023-10-20T06:03:26.559Z,4.45
2023-10-20T06:05:59.997Z,3.60
2023-10-20T06:08:29.632Z,3.40
2023-10-20T06:11:04.061Z,3.97
2023-10-20T06:13:33.982Z,3.50
2023-10-20T06:16:09.924Z,3.45
2023-10-20T06:18:38.924Z,3.22
2023-10-20T06:21:08.186Z,3.33
2023-10-20T06:23:36.776Z,3.55
2023-10-20T06:26:06.738Z,4.43
2023-10-20T06:28:35.451Z,3.30
2023-10-20T06:31:24.215Z,2.80
2023-10-20T06:33:59.676Z,3.22
2023-10-20T06:38:56.915Z,3.25
2023-10-20T06:41:28.097Z,3.13
2023-10-20T06:43:56.584Z,3.40
2023-10-20T06:46:25.126Z,3.45
2023-10-20T06:48:53.547Z,3.22
2023-10-20T06:51:21.907Z,3.30
2023-10-20T06:53:52.697Z,3.15
2023-10-20T06:56:26.777Z,3.33
2023-10-20T06:58:58.325Z,3.13
2023-10-20T07:01:28.221Z,3.50
2023-10-20T07:03:56.921Z,3.38
2023-10-20T07:06:25.413Z,3.30
2023-10-20T07:08:53.950Z,3.08
2023-10-20T07:11:25.515Z,3.08
2023-10-20T07:13:53.985Z,2.80
2023-10-20T07:16:23.769Z,3.17
2023-10-20T07:18:52.173Z,2.90
2023-10-20T07:21:20.553Z,2.88
2023-10-20T07:23:48.988Z,2.92
2023-10-20T07:26:19.327Z,2.80
2023-10-20T07:28:48.106Z,3.70
2023-10-20T07:31:17.348Z,3.33
2023-10-20T07:33:47.147Z,2.45
2023-10-20T07:36:15.823Z,3.35
2023-10-20T07:38:45.714Z,3.13
2023-10-20T07:41:15.159Z,3.42
2023-10-20T07:43:44.546Z,2.83
2023-10-20T07:46:19.583Z,3.35
2023-10-20T07:48:49.447Z,3.75
2023-10-20T07:51:17.960Z,3.63
2023-10-20T07:53:46.615Z,3.50
2023-10-20T07:56:15.099Z,3.33
2023-10-20T07:58:44.072Z,3.47
2023-10-20T08:01:12.478Z,3.75
2023-10-20T08:03:43.707Z,4.18
2023-10-20T08:06:13.971Z,3.70
2023-10-20T08:08:42.800Z,3.60
2023-10-20T08:11:12.135Z,3.67
2023-10-20T08:13:40.718Z,3.13
2023-10-20T08:16:10.009Z,3.20
2023-10-20T08:18:38.880Z,3.17
2023-10-20T08:21:08.578Z,3.33
2023-10-20T08:23:39.625Z,3.60
2023-10-20T08:26:08.173Z,3.55
2023-10-20T08:28:39.177Z,3.70
2023-10-20T08:31:08.612Z,3.03
2023-10-20T08:33:37.366Z,3.13
2023-10-20T08:36:16.119Z,3.08
2023-10-20T08:38:48.324Z,2.90
2023-10-20T08:41:17.640Z,3.85
2023-10-20T08:43:47.046Z,3.58
2023-10-20T08:46:17.390Z,3.17
2023-10-20T08:48:46.406Z,3.20
2023-10-20T08:51:17.650Z,2.63
2023-10-20T08:53:48.480Z,2.65
2023-10-20T08:56:17.198Z,2.38
2023-10-20T08:58:48.092Z,3.40
2023-10-20T09:01:18.233Z,3.17
2023-10-20T09:03:49.554Z,3.40
2023-10-20T09:06:18.389Z,2.72
2023-10-20T09:08:51.352Z,2.67
2023-10-20T09:11:20.656Z,3.13
2023-10-20T09:13:49.669Z,2.90
2023-10-20T09:16:18.115Z,3.10
2023-10-20T09:18:47.647Z,2.45
2023-10-20T09:21:16.434Z,2.28
2023-10-20T09:23:56.659Z,2.42
2023-10-20T09:26:25.584Z,2.80
2023-10-20T09:28:55.714Z,2.15
2023-10-20T09:31:25.640Z,2.30
2023-10-20T09:33:54.236Z,2.00
2023-10-20T09:36:24.336Z,2.03
2023-10-20T09:38:54.240Z,2.08
2023-10-20T09:41:25.563Z,2.13
2023-10-20T09:43:55.079Z,2.20
2023-10-20T09:46:29.902Z,2.42
2023-10-20T09:48:59.229Z,2.20
2023-10-20T09:51:27.777Z,2.00
2023-10-20T09:53:57.337Z,2.10
2023-10-20T09:56:27.738Z,2.22
2023-10-20T09:59:00.269Z,2.08
2023-10-20T10:01:28.774Z,1.70
2023-10-20T10:04:04.801Z,1.90
2023-10-20T10:06:37.439Z,1.60
2023-10-20T10:09:06.317Z,1.60
2023-10-20T10:11:43.953Z,1.63
2023-10-20T10:14:20.786Z,1.15
2023-10-20T10:16:54.662Z,1.30
2023-10-20T10:19:23.739Z,1.40
2023-10-20T10:21:54.440Z,1.40
2023-10-20T10:24:25.000Z,1.80
2023-10-20T10:26:56.103Z,1.30
2023-10-20T10:29:39.613Z,1.60
2023-10-20T10:32:12.826Z,1.52
2023-10-20T10:34:44.730Z,1.27
2023-10-20T10:37:13.253Z,1.48
2023-10-20T10:39:41.705Z,1.25
2023-10-20T10:42:12.693Z,1.20
2023-10-20T10:44:41.354Z,1.00
2023-10-20T10:47:20.947Z,1.75
2023-10-20T10:49:49.755Z,1.15
2023-10-20T10:52:18.559Z,1.50
2023-10-20T10:54:46.982Z,1.42
2023-10-20T10:57:17.709Z,1.45
2023-10-20T10:59:46.584Z,1.40
2023-10-20T11:02:15.248Z,1.30
2023-10-20T11:04:44.003Z,1.30
2023-10-20T11:07:14.216Z,1.35
2023-10-20T11:09:43.832Z,1.13
2023-10-20T11:12:12.764Z,1.00
2023-10-20T11:14:42.648Z,0.90
2023-10-20T11:17:11.135Z,0.73
2023-10-20T11:19:39.924Z,0.60
2023-10-20T11:22:16.331Z,0.88
2023-10-20T11:24:45.043Z,0.60
2023-10-20T11:27:14.177Z,0.60
2023-10-20T11:29:58.470Z,0.65
2023-10-20T11:32:28.043Z,0.43
2023-10-20T11:34:56.529Z,0.60
2023-10-20T11:37:24.934Z,0.22
2023-10-20T11:39:53.544Z,0.52
2023-10-20T11:42:21.975Z,0.60
2023-10-20T11:44:51.757Z,0.55
2023-10-20T11:47:20.412Z,0.55
2023-10-20T11:49:48.847Z,0.40
2023-10-20T11:52:17.255Z,0.40
2023-10-20T11:54:46.686Z,0.40
2023-10-20T11:57:15.750Z,0.50
2023-10-20T11:59:44.192Z,0.50
2023-10-20T12:02:13.954Z,0.65
2023-10-20T12:04:42.511Z,0.60
2023-10-20T12:07:11.358Z,0.45
2023-10-20T12:09:39.817Z,0.60
2023-10-20T12:12:09.374Z,0.80
2023-10-20T12:14:38.009Z,0.57
2023-10-20T12:17:06.429Z,0.75
2023-10-20T12:19:36.197Z,1.20
2023-10-20T12:22:04.642Z,0.90
2023-10-20T12:24:33.255Z,0.60
2023-10-20T12:27:01.850Z,1.00
2023-10-20T12:29:30.349Z,1.02
2023-10-20T12:32:00.053Z,1.33
2023-10-20T12:34:28.994Z,1.25
2023-10-20T12:37:00.459Z,1.98
2023-10-20T12:39:29.418Z,1.80
2023-10-20T12:42:03.618Z,1.80
2023-10-20T12:44:32.257Z,1.63
2023-10-20T12:47:00.719Z,2.17
2023-10-20T12:49:29.144Z,2.40
2023-10-20T12:51:59.591Z,2.70
2023-10-20T12:54:27.962Z,2.30
2023-10-20T12:56:56.413Z,2.75
2023-10-20T12:59:25.049Z,2.15
2023-10-20T13:01:53.552Z,2.58
2023-10-20T13:04:22.113Z,2.05
2023-10-20T13:07:00.021Z,2.35
2023-10-20T13:09:31.393Z,2.00
2023-10-20T13:12:00.112Z,2.10
2023-10-20T13:14:29.459Z,1.90
2023-10-20T13:16:59.108Z,2.15
2023-10-20T13:19:28.179Z,1.83
2023-10-20T13:21:56.624Z,1.83
2023-10-20T13:24:25.055Z,1.60
2023-10-20T13:26:54.897Z,1.60
2023-10-20T13:29:23.314Z,1.23
2023-10-20T13:31:51.855Z,1.25
2023-10-20T13:34:20.372Z,1.30
2023-10-20T13:36:48.811Z,1.25
2023-10-20T13:39:30.819Z,1.13
2023-10-20T13:42:03.440Z,1.20
2023-10-20T13:44:31.955Z,1.30
2023-10-20T13:47:00.344Z,1.13
2023-10-20T13:49:29.126Z,1.30
2023-10-20T13:51:57.561Z,1.05
2023-10-20T13:54:26.896Z,1.40
2023-10-20T13:56:55.408Z,1.13
2023-10-20T13:59:25.948Z,1.25
2023-10-20T14:01:54.436Z,1.10
2023-10-20T14:04:25.119Z,1.10
2023-10-20T14:06:53.823Z,2.03
2023-10-20T14:09:23.104Z,1.50
2023-10-20T14:11:52.022Z,1.98
2023-10-20T14:14:20.624Z,1.80
2023-10-20T14:16:50.454Z,1.50
2023-10-20T14:19:18.877Z,1.67
2023-10-20T14:21:47.304Z,2.40
2023-10-20T14:24:15.787Z,1.83
2023-10-20T14:26:44.209Z,1.55
2023-10-20T14:29:12.584Z,1.90
2023-10-20T14:31:41.011Z,2.50
2023-10-20T14:34:11.492Z,2.67
2023-10-20T14:36:40.575Z,3.05
2023-10-20T14:39:08.922Z,2.40
2023-10-20T14:41:37.370Z,2.70
2023-10-20T14:44:05.879Z,3.00
2023-10-20T14:46:34.387Z,2.42
2023-10-20T14:49:03.358Z,3.40
2023-10-20T14:51:33.175Z,2.63
2023-10-20T14:54:01.575Z,3.03
2023-10-20T14:56:30.225Z,2.97
2023-10-20T14:59:01.054Z,3.40
2023-10-20T15:01:30.491Z,3.80
2023-10-20T15:04:07.519Z,3.88
2023-10-20T15:06:47.604Z,3.15
2023-10-20T15:09:16.203Z,3.67
2023-10-20T15:11:44.780Z,3.55
2023-10-20T15:14:13.232Z,2.40
2023-10-20T15:16:41.776Z,3.13
2023-10-20T15:19:10.192Z,3.10
2023-10-20T15:21:38.632Z,2.72
2023-10-20T15:24:10.746Z,3.47
2023-10-20T15:26:39.159Z,2.50
2023-10-20T15:29:07.543Z,3.17
2023-10-20T15:31:36.073Z,2.28
2023-10-20T15:34:04.531Z,2.33
2023-10-20T15:36:46.469Z,1.92
2023-10-20T15:39:16.369Z,2.20
2023-10-20T15:41:44.888Z,2.00
2023-10-20T15:44:13.286Z,1.90
2023-10-20T15:46:43.342Z,1.65
2023-10-20T15:49:11.763Z,1.40
2023-10-20T15:51:40.154Z,1.77
2023-10-20T15:54:09.756Z,3.03
2023-10-20T15:56:39.602Z,2.22
2023-10-20T15:59:08.275Z,6.95
2023-10-20T16:01:36.708Z,6.25
2023-10-20T16:04:05.291Z,8.80
2023-10-20T16:06:33.830Z,5.43
2023-10-20T16:09:02.301Z,3.60
2023-10-20T16:11:30.790Z,4.38
2023-10-20T16:14:01.424Z,3.80
2023-10-20T16:16:31.886Z,7.13
2023-10-20T16:19:00.347Z,2.83
2023-10-20T16:21:28.764Z,2.63
2023-10-20T16:23:57.170Z,2.30
2023-10-20T16:26:25.705Z,2.47
2023-10-20T16:28:54.187Z,2.83
2023-10-20T16:31:23.997Z,2.67
2023-10-20T16:33:54.498Z,1.95
2023-10-20T16:36:23.105Z,2.40
2023-10-20T16:38:53.336Z,1.50
2023-10-20T16:41:21.850Z,1.38
2023-10-20T16:43:50.236Z,1.70
2023-10-20T16:46:20.139Z,1.65
2023-10-20T16:48:50.155Z,1.52
2023-10-20T16:51:18.594Z,1.60
2023-10-20T16:53:48.430Z,1.50
2023-10-20T16:56:16.883Z,1.70
2023-10-20T16:58:45.300Z,1.73
2023-10-20T17:01:14.409Z,1.70
2023-10-20T17:03:44.261Z,1.70
2023-10-20T17:06:14.685Z,1.80
2023-10-20T17:08:43.489Z,1.60
2023-10-20T17:11:12.442Z,2.30
2023-10-20T17:13:40.880Z,1.50
2023-10-20T17:16:10.132Z,1.90
2023-10-20T17:18:38.831Z,1.83
2023-10-20T17:21:08.594Z,1.95
2023-10-20T17:23:38.616Z,2.00
2023-10-20T17:26:08.800Z,1.58
2023-10-20T17:28:37.825Z,2.13
2023-10-20T17:31:06.827Z,1.88
2023-10-20T17:33:35.321Z,2.65
2023-10-20T17:36:05.196Z,1.80
2023-10-20T17:38:34.068Z,1.65
2023-10-20T17:41:04.789Z,2.85
2023-10-20T17:43:33.384Z,2.40
2023-10-20T17:46:05.333Z,2.40
2023-10-20T17:48:34.011Z,2.38
2023-10-20T17:51:02.876Z,2.10
2023-10-20T17:53:32.245Z,2.35
2023-10-20T17:56:00.749Z,2.58
2023-10-20T17:58:31.534Z,2.33
2023-10-20T18:01:05.303Z,2.70
2023-10-20T18:03:33.889Z,2.72
2023-10-20T18:06:09.762Z,2.78
2023-10-20T18:08:40.170Z,2.38
2023-10-20T18:11:08.781Z,2.38
2023-10-20T18:13:41.272Z,2.20
2023-10-20T18:16:10.890Z,1.95
2023-10-20T18:18:40.053Z,2.38
2023-10-20T18:21:09.049Z,2.10
2023-10-20T18:23:37.783Z,1.85
2023-10-20T18:26:05.625Z,2.22
2023-10-20T18:28:34.422Z,2.47
2023-10-20T18:31:12.674Z,2.50
2023-10-20T18:33:41.449Z,2.40
2023-10-20T18:36:10.252Z,2.35
2023-10-20T18:38:39.015Z,2.60
2023-10-20T18:41:14.828Z,2.35
2023-10-20T18:43:43.316Z,2.67
2023-10-20T18:46:13.132Z,2.38
2023-10-20T18:48:41.890Z,2.67
2023-10-20T18:51:11.196Z,2.30
2023-10-20T18:53:40.478Z,2.65
2023-10-20T18:56:09.493Z,4.38
2023-10-20T18:58:38.407Z,5.20
2023-10-20T19:01:08.001Z,6.65
2023-10-20T19:03:37.931Z,4.40
2023-10-20T19:06:09.665Z,4.90
2023-10-20T19:08:39.163Z,4.68
2023-10-20T19:11:11.435Z,2.85
2023-10-20T19:13:40.300Z,3.08
2023-10-20T19:16:08.970Z,2.70
2023-10-20T19:18:38.891Z,2.53
2023-10-20T19:21:08.054Z,3.13
2023-10-20T19:23:37.072Z,2.70
2023-10-20T19:26:08.832Z,2.30
2023-10-20T19:28:37.539Z,2.28
2023-10-20T19:31:08.778Z,2.40
2023-10-20T19:33:39.316Z,2.30
2023-10-20T19:36:09.122Z,2.20
2023-10-20T19:38:38.080Z,3.22
2023-10-20T19:41:08.021Z,3.75
2023-10-20T19:43:36.539Z,4.00
2023-10-20T19:46:04.975Z,4.20
2023-10-20T19:48:34.124Z,3.83
2023-10-20T19:51:04.102Z,3.17
2023-10-20T19:53:33.234Z,2.80
2023-10-20T19:56:01.751Z,2.42
2023-10-20T19:58:30.181Z,2.92
2023-10-20T20:00:59.874Z,3.00
2023-10-20T20:03:28.676Z,2.65
2023-10-20T20:05:57.373Z,3.38
2023-10-20T20:08:27.357Z,2.40
2023-10-20T20:10:56.452Z,3.53
2023-10-20T20:13:25.003Z,3.28
2023-10-20T20:15:53.412Z,3.05
2023-10-20T20:18:21.859Z,3.20
2023-10-20T20:20:50.436Z,2.17
2023-10-20T20:23:18.864Z,2.38
2023-10-20T20:25:48.640Z,1.90
2023-10-20T20:28:17.045Z,2.20
2023-10-20T20:30:45.489Z,1.98
2023-10-20T20:33:14.034Z,1.92
2023-10-20T20:35:42.444Z,3.53
2023-10-20T20:38:11.189Z,3.15
2023-10-20T20:40:39.731Z,3.03
2023-10-20T20:43:09.474Z,4.22
2023-10-20T20:45:38.171Z,3.53
2023-10-20T20:48:07.331Z,3.67
2023-10-20T20:50:40.773Z,2.55
2023-10-20T20:53:09.221Z,5.35
2023-10-20T20:55:37.824Z,4.70
2023-10-20T20:58:06.282Z,3.63
2023-10-20T21:00:36.109Z,3.17
2023-10-20T21:03:04.921Z,2.67
2023-10-20T21:05:34.376Z,2.65
2023-10-20T21:08:02.946Z,2.40
2023-10-20T21:10:31.663Z,2.45
2023-10-20T21:13:00.539Z,1.67
2023-10-20T21:15:28.953Z,2.00
2023-10-20T21:17:58.913Z,1.70
2023-10-20T21:20:27.368Z,1.73
2023-10-20T21:22:55.771Z,2.10
2023-10-20T21:25:24.192Z,2.08
2023-10-20T21:27:52.538Z,1.60
2023-10-20T21:30:21.461Z,1.63
2023-10-20T21:32:49.993Z,1.52
2023-10-20T21:35:19.877Z,1.40
2023-10-20T21:37:48.242Z,1.27
2023-10-20T21:40:16.672Z,1.05
2023-10-20T21:42:47.586Z,1.20
2023-10-20T21:45:16.103Z,1.33
2023-10-20T21:47:44.564Z,1.10
2023-10-20T21:50:13.012Z,2.30
2023-10-20T21:52:44.480Z,1.02
2023-10-20T21:55:12.868Z,1.30
2023-10-20T21:57:41.251Z,1.50
2023-10-20T22:00:17.042Z,1.33
2023-10-20T22:02:45.726Z,1.55
2023-10-20T22:05:14.399Z,1.60
2023-10-20T22:07:44.586Z,1.42
2023-10-20T22:10:13.045Z,1.05
2023-10-20T22:12:41.410Z,1.20
2023-10-20T22:15:10.702Z,1.30
2023-10-20T22:17:39.902Z,1.50
2023-10-20T22:20:09.428Z,1.05
2023-10-20T22:22:37.848Z,1.33
2023-10-20T22:25:08.139Z,1.30
2023-10-20T22:27:37.554Z,1.20
2023-10-20T22:30:06.844Z,1.00
2023-10-20T22:32:35.448Z,1.02
2023-10-20T22:35:03.931Z,1.10
2023-10-20T22:37:32.341Z,1.08
2023-10-20T22:40:00.699Z,1.00
2023-10-20T22:42:30.459Z,0.90
2023-10-20T22:44:58.914Z,1.25
2023-10-20T22:47:27.490Z,1.25
2023-10-20T22:49:55.929Z,1.20
2023-10-20T22:52:24.355Z,1.10
2023-10-20T22:54:52.702Z,1.30
2023-10-20T22:57:21.106Z,1.30
2023-10-20T22:59:51.409Z,1.20
2023-10-20T23:02:19.834Z,0.90
2023-10-20T23:04:48.282Z,1.00
2023-10-20T23:07:16.701Z,1.13
2023-10-20T23:09:45.453Z,0.90
2023-10-20T23:12:13.899Z,1.02
2023-10-20T23:14:42.381Z,1.00
2023-10-20T23:17:12.204Z,0.98
2023-10-20T23:19:40.595Z,1.00
2023-10-20T23:22:08.959Z,0.90
2023-10-20T23:24:37.373Z,1.30
2023-10-20T23:27:06.107Z,1.27
2023-10-20T23:29:35.247Z,1.00
2023-10-20T23:32:05.569Z,1.30
2023-10-20T23:34:35.333Z,1.30
2023-10-20T23:37:04.546Z,1.00
2023-10-20T23:39:34.286Z,1.60
2023-10-20T23:42:03.292Z,2.00
2023-10-20T23:44:31.912Z,1.75
2023-10-20T23:47:00.295Z,1.70
2023-10-20T23:49:28.858Z,1.30
2023-10-20T23:51:58.857Z,1.40
2023-10-20T23:54:28.323Z,1.40
2023-10-20T23:56:56.748Z,1.80
2023-10-20T23:59:25.212Z,1.50
